createdAt,value
2018-08-13T00:00:02.529Z,93.40
2018-08-13T00:02:31.165Z,94.50
2018-08-13T00:04:59.796Z,93.90
2018-08-13T00:07:28.342Z,93.50
2018-08-13T00:09:57.025Z,93.10
2018-08-13T00:12:25.656Z,93.00
2018-08-13T00:14:54.265Z,93.40
2018-08-13T00:17:22.849Z,94.50
2018-08-13T00:19:51.460Z,94.10
2018-08-13T00:22:20.144Z,94.30
2018-08-13T00:24:48.872Z,94.30
2018-08-13T00:27:17.703Z,94.90
2018-08-13T00:29:46.631Z,93.20
2018-08-13T00:32:15.580Z,94.80
2018-08-13T00:34:44.355Z,94.10
2018-08-13T00:37:13.070Z,93.40
2018-08-13T00:39:41.692Z,95.00
2018-08-13T00:42:10.416Z,95.00
2018-08-13T00:44:39.413Z,94.50
2018-08-13T00:47:08.627Z,94.40
2018-08-13T00:49:37.513Z,94.70
2018-08-13T00:52:06.386Z,94.20
2018-08-13T00:54:35.054Z,94.30
2018-08-13T00:57:03.633Z,94.10
2018-08-13T00:59:32.286Z,94.80
2018-08-13T01:02:00.888Z,94.60
2018-08-13T01:04:29.501Z,94.00
2018-08-13T01:06:58.126Z,94.10
2018-08-13T01:09:26.716Z,94.60
2018-08-13T01:11:55.428Z,93.60
2018-08-13T01:14:24.188Z,95.50
2018-08-13T01:16:52.976Z,94.50
2018-08-13T01:19:21.886Z,94.40
2018-08-13T01:21:50.849Z,94.10
2018-08-13T01:24:20.630Z,94.50
2018-08-13T01:26:49.533Z,94.70
2018-08-13T01:29:18.326Z,95.10
2018-08-13T01:31:46.963Z,94.00
2018-08-13T01:34:15.625Z,94.40
2018-08-13T01:36:44.197Z,95.20
2018-08-13T01:39:13.009Z,95.10
2018-08-13T01:41:41.645Z,95.30
2018-08-13T01:44:10.301Z,95.50
2018-08-13T01:46:39.046Z,95.60
2018-08-13T01:49:07.820Z,94.80
2018-08-13T01:51:36.468Z,94.80
2018-08-13T01:54:05.116Z,94.90
2018-08-13T01:56:33.749Z,94.20
2018-08-13T01:59:02.321Z,94.40
2018-08-13T02:01:31.099Z,94.90
2018-08-13T02:03:59.635Z,95.00
2018-08-13T02:06:28.268Z,94.60
2018-08-13T02:08:56.920Z,95.10
2018-08-13T02:11:25.594Z,94.50
2018-08-13T02:13:54.341Z,94.50
2018-08-13T02:16:23.036Z,94.70
2018-08-13T02:18:52.260Z,94.90
2018-08-13T02:21:21.199Z,94.70
2018-08-13T02:23:51.014Z,95.20
2018-08-13T02:26:19.830Z,95.00
2018-08-13T02:28:55.037Z,94.90
2018-08-13T02:31:23.809Z,95.50
2018-08-13T02:33:52.712Z,95.00
2018-08-13T02:36:21.614Z,95.00
2018-08-13T02:38:50.421Z,95.20
2018-08-13T02:41:19.289Z,95.30
2018-08-13T02:43:47.907Z,95.20
2018-08-13T02:46:16.548Z,95.20
2018-08-13T02:48:45.131Z,95.00
2018-08-13T02:51:13.732Z,95.70
2018-08-13T02:53:42.353Z,94.90
2018-08-13T02:56:10.997Z,95.00
2018-08-13T02:58:40.321Z,95.20
2018-08-13T03:01:09.154Z,95.50
2018-08-13T03:03:37.901Z,95.70
2018-08-13T03:06:06.864Z,95.00
2018-08-13T03:08:35.485Z,95.30
2018-08-13T03:11:04.101Z,95.30
2018-08-13T03:13:32.720Z,95.90
2018-08-13T03:16:01.316Z,96.10
2018-08-13T03:18:29.967Z,95.60
2018-08-13T03:20:58.573Z,95.30
2018-08-13T03:23:27.209Z,95.20
2018-08-13T03:25:56.509Z,95.90
2018-08-13T03:28:25.201Z,96.00
2018-08-13T03:30:54.101Z,95.30
2018-08-13T03:33:22.953Z,95.50
2018-08-13T03:35:51.726Z,95.40
2018-08-13T03:38:20.553Z,95.80
2018-08-13T03:40:49.315Z,96.50
2018-08-13T03:43:18.358Z,96.90
2018-08-13T03:45:47.124Z,96.50
2018-08-13T03:48:15.749Z,97.30
2018-08-13T03:50:44.389Z,97.00
2018-08-13T03:53:13.031Z,97.20
2018-08-13T03:55:41.624Z,97.20
2018-08-13T03:58:10.342Z,96.90
2018-08-13T04:00:39.105Z,97.00
2018-08-13T04:03:08.049Z,98.90
2018-08-13T04:05:36.802Z,98.10
2018-08-13T04:08:05.620Z,97.80
2018-08-13T04:10:34.316Z,99.90
2018-08-13T04:13:03.059Z,99.90
2018-08-13T04:15:31.679Z,99.90
2018-08-13T04:18:00.330Z,99.90
2018-08-13T04:20:28.916Z,99.90
2018-08-13T04:22:57.541Z,99.90
2018-08-13T04:25:26.237Z,99.90
2018-08-13T04:27:54.838Z,99.90
2018-08-13T04:30:23.422Z,99.90
2018-08-13T04:32:52.092Z,99.90
2018-08-13T04:35:20.676Z,99.90
2018-08-13T04:37:49.308Z,99.90
2018-08-13T04:40:18.741Z,99.90
2018-08-13T04:42:48.053Z,99.90
2018-08-13T04:45:16.701Z,99.90
2018-08-13T04:47:49.940Z,99.90
2018-08-13T04:50:18.584Z,99.90
2018-08-13T04:52:47.231Z,99.90
2018-08-13T04:55:15.905Z,99.90
2018-08-13T04:57:44.612Z,99.90
2018-08-13T05:00:13.181Z,99.90
2018-08-13T05:02:41.809Z,99.90
2018-08-13T05:05:11.460Z,99.90
2018-08-13T05:07:40.213Z,99.90
2018-08-13T05:10:10.313Z,99.90
2018-08-13T05:12:39.661Z,99.90
2018-08-13T05:15:09.407Z,99.90
2018-08-13T05:17:38.148Z,99.90
2018-08-13T05:20:08.160Z,99.90
2018-08-13T05:22:36.769Z,99.90
2018-08-13T05:25:06.605Z,99.90
2018-08-13T05:27:35.496Z,99.90
2018-08-13T05:30:05.501Z,99.90
2018-08-13T05:32:34.029Z,99.90
2018-08-13T05:35:02.629Z,99.90
2018-08-13T05:37:31.213Z,99.90
2018-08-13T05:39:59.869Z,99.90
2018-08-13T05:42:28.552Z,99.90
2018-08-13T05:44:57.161Z,99.90
2018-08-13T05:47:25.780Z,99.90
2018-08-13T05:49:54.361Z,99.90
2018-08-13T05:52:23.000Z,99.90
2018-08-13T05:54:51.565Z,99.90
2018-08-13T05:57:20.257Z,99.90
2018-08-13T05:59:48.848Z,99.90
2018-08-13T06:02:18.203Z,99.90
2018-08-13T06:04:47.017Z,99.90
2018-08-13T06:07:15.621Z,99.90
2018-08-13T06:09:44.224Z,99.90
2018-08-13T06:12:12.816Z,99.90
2018-08-13T06:14:41.465Z,99.90
2018-08-13T06:17:10.116Z,99.90
2018-08-13T06:19:38.764Z,99.90
2018-08-13T06:22:07.412Z,99.90
2018-08-13T06:24:36.045Z,99.90
2018-08-13T06:27:04.640Z,99.90
2018-08-13T06:29:33.253Z,99.90
2018-08-13T06:32:01.853Z,99.90
2018-08-13T06:34:30.425Z,99.90
2018-08-13T06:36:59.040Z,99.90
2018-08-13T06:39:27.625Z,99.90
2018-08-13T06:41:56.224Z,99.90
2018-08-13T06:44:24.857Z,99.90
2018-08-13T06:46:53.432Z,99.90
2018-08-13T06:49:22.049Z,99.90
2018-08-13T06:51:50.657Z,99.90
2018-08-13T06:54:19.245Z,99.90
2018-08-13T06:56:47.901Z,99.90
2018-08-13T06:59:16.469Z,99.90
2018-08-13T07:01:45.150Z,99.90
2018-08-13T07:04:13.741Z,99.90
2018-08-13T07:06:42.334Z,99.90
2018-08-13T07:09:11.657Z,99.90
2018-08-13T07:11:40.249Z,99.90
2018-08-13T07:14:08.906Z,99.90
2018-08-13T07:16:37.673Z,99.90
2018-08-13T07:19:06.517Z,99.90
2018-08-13T07:21:35.097Z,99.90
2018-08-13T07:24:03.844Z,99.90
2018-08-13T07:26:32.441Z,99.90
2018-08-13T07:29:01.068Z,99.90
2018-08-13T07:31:29.633Z,99.90
2018-08-13T07:33:58.272Z,99.90
2018-08-13T07:36:27.577Z,99.90
2018-08-13T07:38:56.269Z,99.90
2018-08-13T07:41:24.889Z,99.90
2018-08-13T07:43:53.480Z,99.90
2018-08-13T07:46:22.109Z,99.90
2018-08-13T07:48:50.668Z,99.90
2018-08-13T07:51:19.310Z,99.90
2018-08-13T07:53:47.885Z,99.90
2018-08-13T07:56:16.530Z,99.90
2018-08-13T07:58:46.175Z,99.90
2018-08-13T08:01:14.872Z,99.90
2018-08-13T08:03:43.524Z,99.90
2018-08-13T08:06:12.208Z,99.90
2018-08-13T08:08:40.772Z,99.90
2018-08-13T08:11:09.436Z,99.90
2018-08-13T08:13:38.023Z,99.90
2018-08-13T08:16:06.685Z,99.90
2018-08-13T08:18:35.594Z,99.90
2018-08-13T08:21:04.340Z,99.90
2018-08-13T08:23:33.033Z,99.90
2018-08-13T08:26:01.669Z,99.90
2018-08-13T08:28:30.873Z,99.90
2018-08-13T08:30:59.521Z,99.90
2018-08-13T08:33:28.141Z,99.90
2018-08-13T08:35:56.740Z,99.90
2018-08-13T08:38:25.381Z,99.90
2018-08-13T08:40:54.079Z,99.90
2018-08-13T08:43:22.709Z,99.90
2018-08-13T08:45:51.546Z,99.90
2018-08-13T08:48:20.889Z,99.90
2018-08-13T08:50:49.580Z,99.90
2018-08-13T08:53:18.185Z,99.90
2018-08-13T08:55:46.830Z,99.90
2018-08-13T08:58:15.424Z,99.90
2018-08-13T09:00:44.039Z,99.90
2018-08-13T09:03:12.633Z,99.90
2018-08-13T09:05:41.297Z,99.90
2018-08-13T09:08:09.921Z,99.90
2018-08-13T09:10:38.490Z,99.90
2018-08-13T09:13:07.141Z,99.90
2018-08-13T09:15:35.893Z,99.90
2018-08-13T09:18:15.553Z,99.90
2018-08-13T09:20:55.794Z,99.90
2018-08-13T09:23:35.412Z,99.90
2018-08-13T09:26:15.197Z,99.90
2018-08-13T09:28:54.859Z,99.90
2018-08-13T09:31:34.636Z,99.90
2018-08-13T09:34:14.114Z,99.90
2018-08-13T09:36:42.816Z,99.90
2018-08-13T09:39:11.672Z,99.90
2018-08-13T09:41:40.278Z,99.90
2018-08-13T09:44:08.921Z,99.90
2018-08-13T09:46:37.505Z,99.90
2018-08-13T09:49:06.145Z,99.90
2018-08-13T09:51:34.894Z,99.90
2018-08-13T09:54:03.645Z,99.90
2018-08-13T09:56:32.226Z,99.90
2018-08-13T09:59:00.832Z,99.90
2018-08-13T10:01:29.428Z,99.90
2018-08-13T10:03:58.062Z,99.90
2018-08-13T10:06:26.698Z,99.90
2018-08-13T10:08:55.328Z,99.90
2018-08-13T10:11:23.917Z,99.90
2018-08-13T10:13:52.539Z,99.90
2018-08-13T10:16:21.172Z,99.90
2018-08-13T10:18:49.797Z,99.90
2018-08-13T10:21:18.393Z,99.90
2018-08-13T10:23:47.041Z,99.90
2018-08-13T10:26:15.669Z,99.90
2018-08-13T10:28:44.253Z,99.90
2018-08-13T10:31:13.569Z,99.90
2018-08-13T10:33:42.194Z,99.90
2018-08-13T10:36:10.821Z,99.90
2018-08-13T10:38:39.409Z,99.90
2018-08-13T10:41:08.013Z,99.90
2018-08-13T10:43:36.615Z,99.90
2018-08-13T10:46:05.248Z,99.90
2018-08-13T10:48:33.819Z,99.90
2018-08-13T10:51:02.397Z,99.90
2018-08-13T10:53:30.962Z,99.90
2018-08-13T10:55:59.656Z,99.90
2018-08-13T10:58:28.200Z,99.90
2018-08-13T11:00:56.789Z,99.90
2018-08-13T11:03:26.085Z,99.90
2018-08-13T11:05:54.765Z,99.90
2018-08-13T11:08:23.404Z,99.90
2018-08-13T11:10:52.154Z,99.90
2018-08-13T11:13:21.080Z,99.90
2018-08-13T11:15:49.665Z,99.90
2018-08-13T11:18:18.332Z,99.90
2018-08-13T11:20:46.953Z,99.90
2018-08-13T11:23:15.561Z,99.90
2018-08-13T11:25:44.158Z,99.90
2018-08-13T11:28:12.780Z,99.90
2018-08-13T11:30:41.390Z,99.90
2018-08-13T11:33:10.044Z,99.90
2018-08-13T11:35:38.705Z,99.90
2018-08-13T11:38:07.341Z,99.90
2018-08-13T11:40:35.954Z,99.90
2018-08-13T11:43:04.585Z,99.90
2018-08-13T11:45:33.192Z,99.90
2018-08-13T11:48:01.868Z,99.90
2018-08-13T11:50:30.585Z,99.90
2018-08-13T11:52:59.185Z,99.90
2018-08-13T11:55:27.853Z,99.90
2018-08-13T11:57:56.497Z,99.90
2018-08-13T12:00:25.136Z,99.90
2018-08-13T12:02:53.766Z,99.90
2018-08-13T12:05:22.349Z,99.90
2018-08-13T12:07:51.673Z,99.90
2018-08-13T12:10:20.817Z,99.90
2018-08-13T12:12:49.460Z,99.90
2018-08-13T12:15:18.033Z,99.90
2018-08-13T12:17:46.697Z,99.90
2018-08-13T12:20:17.692Z,99.90
2018-08-13T12:22:46.762Z,99.90
2018-08-13T12:25:22.944Z,99.90
2018-08-13T12:27:51.677Z,99.90
2018-08-13T12:30:20.332Z,99.90
2018-08-13T12:32:49.881Z,99.90
2018-08-13T12:35:19.036Z,99.90
2018-08-13T12:37:47.665Z,99.90
2018-08-13T12:40:16.272Z,99.90
2018-08-13T12:42:44.967Z,99.90
2018-08-13T12:45:14.916Z,99.90
2018-08-13T12:47:43.586Z,99.90
2018-08-13T12:50:14.560Z,99.90
2018-08-13T12:52:44.720Z,99.90
2018-08-13T12:55:13.741Z,99.90
2018-08-13T12:57:42.557Z,99.90
2018-08-13T13:00:14.816Z,99.90
2018-08-13T13:02:43.674Z,99.90
2018-08-13T13:05:13.836Z,99.90
2018-08-13T13:07:42.462Z,99.90
2018-08-13T13:10:13.151Z,99.90
2018-08-13T13:12:42.283Z,99.90
2018-08-13T13:15:13.285Z,99.90
2018-08-13T13:17:42.230Z,99.90
2018-08-13T13:20:15.000Z,99.90
2018-08-13T13:22:43.651Z,99.90
2018-08-13T13:25:12.236Z,99.90
2018-08-13T13:27:40.872Z,99.90
2018-08-13T13:30:13.273Z,99.90
2018-08-13T13:32:42.233Z,99.90
2018-08-13T13:35:12.441Z,99.90
2018-08-13T13:37:41.091Z,99.90
2018-08-13T13:40:11.579Z,99.90
2018-08-13T13:42:40.445Z,99.90
2018-08-13T13:45:10.152Z,99.90
2018-08-13T13:47:39.128Z,99.90
2018-08-13T13:50:09.474Z,99.90
2018-08-13T13:52:38.077Z,99.90
2018-08-13T13:55:07.115Z,99.90
2018-08-13T13:57:35.741Z,99.90
2018-08-13T14:00:06.343Z,99.90
2018-08-13T14:02:34.932Z,99.90
2018-08-13T14:05:05.157Z,99.90
2018-08-13T14:07:33.733Z,99.90
2018-08-13T14:10:02.457Z,99.90
2018-08-13T14:12:31.181Z,99.90
2018-08-13T14:14:59.841Z,99.90
2018-08-13T14:17:28.593Z,99.90
2018-08-13T14:19:57.269Z,99.90
2018-08-13T14:22:25.913Z,99.90
2018-08-13T14:24:54.571Z,99.90
2018-08-13T14:27:23.261Z,99.90
2018-08-13T14:29:51.841Z,99.90
2018-08-13T14:32:20.467Z,99.90
2018-08-13T14:34:49.288Z,99.90
2018-08-13T14:37:17.785Z,99.90
2018-08-13T14:39:46.420Z,99.90
2018-08-13T14:42:15.008Z,99.90
2018-08-13T14:44:43.760Z,99.90
2018-08-13T14:47:12.409Z,99.90
2018-08-13T14:49:41.029Z,99.90
2018-08-13T14:52:09.626Z,99.90
2018-08-13T14:54:38.361Z,99.90
2018-08-13T14:57:06.973Z,99.90
2018-08-13T14:59:35.615Z,99.90
2018-08-13T15:02:04.272Z,99.90
2018-08-13T15:04:32.878Z,99.90
2018-08-13T15:07:01.482Z,99.90
2018-08-13T15:09:30.045Z,99.90
2018-08-13T15:11:58.669Z,99.90
2018-08-13T15:14:27.236Z,99.90
2018-08-13T15:16:55.840Z,99.90
2018-08-13T15:19:24.525Z,99.90
2018-08-13T15:21:53.152Z,99.90
2018-08-13T15:24:21.764Z,99.90
2018-08-13T15:26:50.353Z,99.90
2018-08-13T15:29:18.969Z,99.90
2018-08-13T15:31:47.521Z,99.90
2018-08-13T15:34:16.164Z,99.90
2018-08-13T15:36:44.787Z,99.90
2018-08-13T15:39:14.052Z,99.90
2018-08-13T15:41:42.666Z,99.90
2018-08-13T15:44:11.249Z,99.90
2018-08-13T15:46:39.900Z,99.90
2018-08-13T15:49:08.613Z,99.90
2018-08-13T15:51:37.196Z,99.90
2018-08-13T15:54:05.805Z,99.90
2018-08-13T15:56:34.392Z,99.90
2018-08-13T15:59:03.007Z,99.90
2018-08-13T16:01:31.617Z,99.90
2018-08-13T16:04:00.305Z,99.90
2018-08-13T16:06:28.919Z,99.90
2018-08-13T16:08:57.481Z,99.90
2018-08-13T16:11:26.046Z,99.90
2018-08-13T16:13:54.745Z,99.90
2018-08-13T16:16:23.333Z,99.90
2018-08-13T16:18:51.954Z,99.90
2018-08-13T16:21:20.629Z,99.90
2018-08-13T16:23:49.373Z,99.90
2018-08-13T16:26:17.973Z,99.90
2018-08-13T16:28:46.587Z,99.90
2018-08-13T16:31:15.173Z,99.90
2018-08-13T16:33:43.964Z,99.90
2018-08-13T16:36:12.553Z,99.90
2018-08-13T16:38:41.140Z,99.90
2018-08-13T16:41:09.799Z,99.90
2018-08-13T16:43:38.372Z,99.90
2018-08-13T16:46:07.079Z,99.90
2018-08-13T16:48:35.704Z,99.90
2018-08-13T16:51:04.332Z,99.90
2018-08-13T16:53:32.965Z,99.90
2018-08-13T16:56:01.644Z,99.90
2018-08-13T16:58:30.256Z,99.90
2018-08-13T17:00:58.847Z,99.90
2018-08-13T17:03:27.489Z,99.90
2018-08-13T17:05:56.041Z,99.90
2018-08-13T17:08:24.653Z,99.90
2018-08-13T17:10:53.287Z,99.90
2018-08-13T17:13:21.943Z,99.90
2018-08-13T17:15:50.585Z,99.90
2018-08-13T17:18:19.220Z,99.90
2018-08-13T17:20:47.904Z,99.90
2018-08-13T17:23:16.549Z,99.90
2018-08-13T17:25:45.145Z,99.90
2018-08-13T17:28:13.886Z,99.90
2018-08-13T17:30:42.436Z,99.90
2018-08-13T17:33:11.273Z,99.90
2018-08-13T17:35:39.972Z,99.90
2018-08-13T17:38:10.131Z,99.90
2018-08-13T17:40:38.905Z,99.90
2018-08-13T17:43:09.371Z,99.90
2018-08-13T17:45:38.254Z,99.90
2018-08-13T17:48:08.812Z,99.90
2018-08-13T17:50:37.641Z,99.90
2018-08-13T17:53:07.697Z,99.90
2018-08-13T17:55:36.273Z,99.90
2018-08-13T17:58:04.929Z,99.90
2018-08-13T18:00:33.524Z,99.90
2018-08-13T18:03:02.180Z,99.90
2018-08-13T18:05:30.767Z,99.90
2018-08-13T18:07:59.432Z,99.90
2018-08-13T18:10:30.269Z,99.90
2018-08-13T18:13:00.290Z,99.90
2018-08-13T18:15:28.964Z,99.90
2018-08-13T18:17:57.649Z,99.90
2018-08-13T18:20:26.319Z,99.90
2018-08-13T18:22:54.921Z,99.90
2018-08-13T18:25:23.538Z,99.90
2018-08-13T18:27:52.810Z,99.90
2018-08-13T18:30:23.647Z,99.90
2018-08-13T18:32:52.805Z,99.90
2018-08-13T18:35:21.439Z,99.90
2018-08-13T18:37:50.100Z,99.90
2018-08-13T18:40:21.993Z,99.90
2018-08-13T18:42:50.772Z,99.90
2018-08-13T18:45:19.416Z,99.90
2018-08-13T18:47:48.758Z,99.90
2018-08-13T18:50:19.618Z,99.90
2018-08-13T18:52:48.283Z,99.90
2018-08-13T18:55:18.381Z,99.90
2018-08-13T18:57:48.365Z,99.90
2018-08-13T19:00:21.103Z,99.90
2018-08-13T19:02:49.813Z,99.90
2018-08-13T19:05:19.309Z,99.90
2018-08-13T19:07:48.249Z,99.90
2018-08-13T19:10:17.578Z,99.90
2018-08-13T19:12:46.201Z,99.90
2018-08-13T19:15:17.662Z,99.90
2018-08-13T19:17:46.341Z,99.90
2018-08-13T19:20:15.288Z,99.90
2018-08-13T19:22:45.094Z,99.90
2018-08-13T19:25:16.552Z,99.90
2018-08-13T19:27:45.336Z,99.90
2018-08-13T19:30:15.584Z,99.90
2018-08-13T19:32:45.177Z,99.90
2018-08-13T19:35:13.799Z,99.90
2018-08-13T19:37:42.769Z,99.90
2018-08-13T19:40:15.165Z,99.90
2018-08-13T19:42:44.652Z,99.90
2018-08-13T19:45:14.593Z,99.90
2018-08-13T19:47:43.491Z,99.90
2018-08-13T19:50:12.571Z,99.90
2018-08-13T19:52:42.653Z,99.90
2018-08-13T19:55:11.792Z,99.90
2018-08-13T19:57:40.609Z,99.90
2018-08-13T20:00:15.797Z,99.90
2018-08-13T20:02:44.500Z,99.90
2018-08-13T20:05:13.221Z,99.90
2018-08-13T20:07:41.901Z,99.90
2018-08-13T20:10:12.617Z,99.90
2018-08-13T20:12:41.680Z,99.90
2018-08-13T20:15:10.525Z,99.90
2018-08-13T20:17:39.426Z,99.90
2018-08-13T20:20:11.121Z,99.90
2018-08-13T20:22:39.748Z,99.90
2018-08-13T20:25:10.104Z,99.90
2018-08-13T20:27:39.127Z,99.90
2018-08-13T20:30:09.809Z,99.90
2018-08-13T20:32:38.770Z,99.90
2018-08-13T20:35:07.389Z,99.90
2018-08-13T20:37:35.968Z,99.90
2018-08-13T20:40:05.114Z,99.90
2018-08-13T20:42:33.692Z,99.90
2018-08-13T20:45:02.282Z,99.90
2018-08-13T20:47:30.870Z,99.90
2018-08-13T20:49:59.520Z,99.90
2018-08-13T20:52:28.283Z,99.90
2018-08-13T20:54:57.097Z,99.90
2018-08-13T20:57:25.703Z,99.90
2018-08-13T20:59:54.365Z,99.90
2018-08-13T21:02:23.029Z,99.90
2018-08-13T21:04:51.649Z,99.90
2018-08-13T21:07:20.845Z,99.90
2018-08-13T21:09:49.544Z,99.90
2018-08-13T21:12:18.180Z,99.90
2018-08-13T21:14:46.795Z,99.90
2018-08-13T21:17:15.392Z,99.90
2018-08-13T21:19:44.013Z,99.90
2018-08-13T21:22:12.649Z,99.90
2018-08-13T21:24:41.672Z,99.90
2018-08-13T21:27:10.394Z,99.90
2018-08-13T21:29:39.043Z,99.90
2018-08-13T21:32:08.037Z,99.90
2018-08-13T21:34:36.626Z,99.90
2018-08-13T21:37:05.277Z,99.90
2018-08-13T21:39:33.943Z,99.90
2018-08-13T21:42:03.257Z,99.90
2018-08-13T21:44:31.984Z,99.90
2018-08-13T21:47:00.622Z,99.90
2018-08-13T21:49:29.257Z,99.90
2018-08-13T21:51:57.952Z,99.90
2018-08-13T21:54:26.535Z,99.90
2018-08-13T21:56:55.136Z,99.90
2018-08-13T21:59:23.757Z,99.90
2018-08-13T22:01:54.015Z,99.90
2018-08-13T22:04:22.648Z,99.90
2018-08-13T22:06:51.319Z,99.90
2018-08-13T22:09:20.078Z,99.90
2018-08-13T22:11:48.725Z,99.90
2018-08-13T22:14:17.337Z,99.90
2018-08-13T22:16:45.978Z,99.90
2018-08-13T22:19:15.522Z,99.90
2018-08-13T22:21:44.909Z,99.90
2018-08-13T22:24:24.762Z,99.90
2018-08-13T22:26:53.409Z,99.90
2018-08-13T22:29:22.121Z,99.90
2018-08-13T22:31:50.781Z,99.90
2018-08-13T22:34:19.443Z,99.90
2018-08-13T22:36:48.061Z,99.90
2018-08-13T22:39:16.625Z,99.90
2018-08-13T22:41:45.337Z,99.90
2018-08-13T22:44:13.946Z,99.90
2018-08-13T22:46:42.549Z,99.90
2018-08-13T22:49:11.125Z,99.90
2018-08-13T22:51:39.721Z,99.90
2018-08-13T22:54:08.345Z,99.90
2018-08-13T22:56:37.013Z,99.90
2018-08-13T22:59:05.654Z,99.90
2018-08-13T23:01:34.285Z,99.90
2018-08-13T23:04:02.993Z,99.90
2018-08-13T23:06:31.625Z,99.90
2018-08-13T23:09:00.261Z,99.90
2018-08-13T23:11:29.829Z,99.90
2018-08-13T23:13:58.490Z,99.90
2018-08-13T23:16:27.100Z,99.90
2018-08-13T23:18:55.699Z,99.90
2018-08-13T23:21:24.457Z,99.90
2018-08-13T23:23:53.153Z,99.90
2018-08-13T23:26:21.777Z,99.90
2018-08-13T23:28:50.393Z,99.90
2018-08-13T23:31:18.965Z,99.90
2018-08-13T23:33:47.577Z,99.90
2018-08-13T23:36:16.173Z,99.90
2018-08-13T23:38:44.797Z,99.90
2018-08-13T23:41:13.442Z,99.90
2018-08-13T23:43:42.051Z,99.90
2018-08-13T23:46:10.640Z,99.90
2018-08-13T23:48:39.305Z,99.90
2018-08-13T23:51:08.597Z,99.90
2018-08-13T23:53:37.265Z,99.90
2018-08-13T23:56:05.933Z,99.90
2018-08-13T23:58:34.517Z,99.90
